Alturas, CA

3:43 PM PDT on March 30, 2017 (GMT -0700)
Alturas Municipal | | Change Station
Active Advisory: Wind Advisory

Elev 4373 ft 41.48 °N, 120.57 °W | Updated 48 minutes ago

Clear
Clear
41 °F
Feels Like 31 °F
N
24
Wind Variable Wind from NNW

Today
High -- | Low -- °F
--% Chance of Precip.
Yesterday
High -- | Low -- °F
Precip. -- in
Pressure 30.04 in
Visibility 10.0 miles
Clouds Few 1400 ft
Windchill 31 °F
Dew Point 29 °F
Humidity 62%
Rainfall 0.18 in
Snow Depth Not available.
6:48 AM 7:25 PM
Waxing Crescent, 11% visible
METAR KAAT 302155Z AUTO 33021KT 10SM FEW014 05/M02 A3004 RMK AO2 PK WND 36032/2056 RAB31E41SNB41E42 SLP170 P0000 T00501017 TSNO
Pressure 30.04 in
Visibility 10.0 miles
Clouds Few 1400 ft
Windchill 31 °F
Dew Point 29 °F
Humidity 62%
Rainfall 0.18 in
Snow Depth Not available.
6:48 AM 7:25 PM
Waxing Crescent, 11% visible
METAR KAAT 302155Z AUTO 33021KT 10SM FEW014 05/M02 A3004 RMK AO2 PK WND 36032/2056 RAB31E41SNB41E42 SLP170 P0000 T00501017 TSNO

Get Your Daily Forecast Email!

Thanks for signing up!

Be on the lookout for a verification email in your inbox.

You'll start receiving severe weather alerts in your inbox..

×

10-Day Weather Forecast

Almanac

Astronomy

Mar. 30, 2017 Rise Set
Actual Time
Civil Twilight
Nautical Twilight
Astronomical Twilight
Moon
Length of Visible Light
Length of Day
Tomorrow will be .
, % of the Moon is Illuminated

Today's Extremes

State Highs State Lows

Community

WunderPhotos

Upload Photos

1,962,540 photos uploaded!

WunderBlog® & News

Nearby

Air Quality

  Air Quality AQ Index Pollutant
Not available.

Snow Depth

Station Depth Elevation

Earthquake Activity

City Distance Mag. Time & Date
Minimum magnitude displayed is 2.5.

Earthquake Activity

City Distance Mag. Time & Date
Minimum magnitude displayed is 2.5.

Coastal Water Temperatures

Place Temperature

Stations

Nearby Weather Stations

Station Location Temp. Windchill Dew Point Humidity Wind Precip. Elev Updated Type
                   

Watches & Warnings

Wind Advisory
Issued: 2:34 PM PDT Mar. 30, 2017 – National Weather Service

... Wind Advisory remains in effect until 11 PM PDT this evening...

* winds... northwest 30 to 35 mph with gusts up to 45 mph.

* Locations include... Fort Rock, Summer Lake, Paisley, Adel, and
portions of highways 31, 140, and 395 in Lake County, and
Highway 299 at Cedar Pass in Modoc County.

* Impacts... gusty Crosswinds will produce hazardous driving
conditions, especially for high profile vehicles. Loose or
unsecured objects may be lost or damaged.

* View the hazard area in detail at
http://weather.Gov/Medford/hazard

Precautionary/preparedness actions...

A Wind Advisory means that winds of 35 mph are expected with
higher gusts possible. Winds this strong can make driving
difficult, especially for high profile vehicles. Use extra
caution.